sensor_id;sensor_type;location;lat;lon;timestamp;P1;durP1;ratioP1;P2;durP2;ratioP2
60935;SDS011;46804;51.786;19.520;2024-03-08T00:01:53;27.85;;;13.32;;
60935;SDS011;46804;51.786;19.520;2024-03-08T00:05:54;31.20;;;14.40;;
60935;SDS011;46804;51.786;19.520;2024-03-08T00:09:55;33.47;;;13.60;;
60935;SDS011;46804;51.786;19.520;2024-03-08T00:13:56;22.77;;;11.73;;
60935;SDS011;46804;51.786;19.520;2024-03-08T00:17:57;28.10;;;12.07;;
60935;SDS011;46804;51.786;19.520;2024-03-08T00:21:58;25.85;;;11.82;;
60935;SDS011;46804;51.786;19.520;2024-03-08T00:25:58;30.20;;;13.20;;
60935;SDS011;46804;51.786;19.520;2024-03-08T00:29:59;43.85;;;18.95;;
60935;SDS011;46804;51.786;19.520;2024-03-08T00:34:01;31.27;;;14.73;;
60935;SDS011;46804;51.786;19.520;2024-03-08T00:38:01;22.98;;;12.82;;
60935;SDS011;46804;51.786;19.520;2024-03-08T00:42:02;34.35;;;13.45;;
60935;SDS011;46804;51.786;19.520;2024-03-08T00:46:03;26.92;;;13.05;;
60935;SDS011;46804;51.786;19.520;2024-03-08T00:50:04;29.67;;;12.93;;
60935;SDS011;46804;51.786;19.520;2024-03-08T00:54:05;20.73;;;10.43;;
60935;SDS011;46804;51.786;19.520;2024-03-08T00:58:06;22.73;;;10.70;;
60935;SDS011;46804;51.786;19.520;2024-03-08T01:02:07;22.77;;;10.07;;
60935;SDS011;46804;51.786;19.520;2024-03-08T01:06:09;26.30;;;10.70;;
60935;SDS011;46804;51.786;19.520;2024-03-08T01:10:10;20.77;;;10.50;;
60935;SDS011;46804;51.786;19.520;2024-03-08T01:14:11;19.15;;;8.65;;
60935;SDS011;46804;51.786;19.520;2024-03-08T01:18:11;24.73;;;10.57;;
60935;SDS011;46804;51.786;19.520;2024-03-08T01:22:12;18.77;;;9.93;;
60935;SDS011;46804;51.786;19.520;2024-03-08T01:26:13;29.83;;;12.13;;
60935;SDS011;46804;51.786;19.520;2024-03-08T01:30:15;19.15;;;10.15;;
60935;SDS011;46804;51.786;19.520;2024-03-08T01:34:17;23.45;;;11.18;;
60935;SDS011;46804;51.786;19.520;2024-03-08T01:38:18;22.77;;;11.52;;
60935;SDS011;46804;51.786;19.520;2024-03-08T01:42:21;18.65;;;9.38;;
60935;SDS011;46804;51.786;19.520;2024-03-08T01:46:22;25.80;;;10.27;;
60935;SDS011;46804;51.786;19.520;2024-03-08T01:50:23;22.98;;;9.20;;
60935;SDS011;46804;51.786;19.520;2024-03-08T01:54:24;17.27;;;8.30;;
60935;SDS011;46804;51.786;19.520;2024-03-08T01:58:27;22.40;;;8.57;;
60935;SDS011;46804;51.786;19.520;2024-03-08T02:02:29;17.73;;;9.23;;
60935;SDS011;46804;51.786;19.520;2024-03-08T02:06:35;24.55;;;11.70;;
60935;SDS011;46804;51.786;19.520;2024-03-08T02:10:35;22.38;;;12.85;;
60935;SDS011;46804;51.786;19.520;2024-03-08T02:14:36;33.22;;;11.68;;
60935;SDS011;46804;51.786;19.520;2024-03-08T02:18:37;30.23;;;13.33;;
60935;SDS011;46804;51.786;19.520;2024-03-08T02:22:39;39.60;;;15.60;;
60935;SDS011;46804;51.786;19.520;2024-03-08T02:26:40;44.10;;;16.90;;
60935;SDS011;46804;51.786;19.520;2024-03-08T02:30:42;25.17;;;10.80;;
60935;SDS011;46804;51.786;19.520;2024-03-08T02:34:43;16.95;;;9.23;;
60935;SDS011;46804;51.786;19.520;2024-03-08T02:38:44;16.65;;;9.52;;
60935;SDS011;46804;51.786;19.520;2024-03-08T02:42:45;14.93;;;7.25;;
60935;SDS011;46804;51.786;19.520;2024-03-08T02:46:45;11.43;;;6.30;;
60935;SDS011;46804;51.786;19.520;2024-03-08T02:50:46;22.02;;;7.78;;
60935;SDS011;46804;51.786;19.520;2024-03-08T02:54:47;16.52;;;7.40;;
60935;SDS011;46804;51.786;19.520;2024-03-08T02:58:48;16.83;;;7.47;;
60935;SDS011;46804;51.786;19.520;2024-03-08T03:02:49;14.57;;;6.80;;
60935;SDS011;46804;51.786;19.520;2024-03-08T03:06:54;11.98;;;6.38;;
60935;SDS011;46804;51.786;19.520;2024-03-08T03:10:54;11.88;;;5.90;;
60935;SDS011;46804;51.786;19.520;2024-03-08T03:14:57;14.45;;;6.30;;
60935;SDS011;46804;51.786;19.520;2024-03-08T03:18:58;19.25;;;7.18;;
60935;SDS011;46804;51.786;19.520;2024-03-08T03:22:59;11.93;;;6.32;;
60935;SDS011;46804;51.786;19.520;2024-03-08T03:27:02;11.13;;;6.93;;
60935;SDS011;46804;51.786;19.520;2024-03-08T03:31:11;13.50;;;6.28;;
60935;SDS011;46804;51.786;19.520;2024-03-08T03:35:14;14.45;;;6.90;;
60935;SDS011;46804;51.786;19.520;2024-03-08T03:39:16;14.60;;;6.55;;
60935;SDS011;46804;51.786;19.520;2024-03-08T03:43:16;12.25;;;6.25;;
60935;SDS011;46804;51.786;19.520;2024-03-08T03:47:17;14.05;;;6.50;;
60935;SDS011;46804;51.786;19.520;2024-03-08T03:51:18;14.77;;;6.70;;
60935;SDS011;46804;51.786;19.520;2024-03-08T03:55:19;12.45;;;4.97;;
60935;SDS011;46804;51.786;19.520;2024-03-08T03:59:20;14.68;;;6.88;;
60935;SDS011;46804;51.786;19.520;2024-03-08T04:03:21;16.85;;;6.68;;
60935;SDS011;46804;51.786;19.520;2024-03-08T04:07:23;10.18;;;5.45;;
60935;SDS011;46804;51.786;19.520;2024-03-08T04:11:24;13.15;;;5.93;;
60935;SDS011;46804;51.786;19.520;2024-03-08T04:15:24;11.52;;;6.03;;
60935;SDS011;46804;51.786;19.520;2024-03-08T04:19:25;10.65;;;5.70;;
60935;SDS011;46804;51.786;19.520;2024-03-08T04:23:28;10.45;;;6.03;;
60935;SDS011;46804;51.786;19.520;2024-03-08T04:27:29;11.82;;;5.90;;
60935;SDS011;46804;51.786;19.520;2024-03-08T04:31:30;11.10;;;7.03;;
60935;SDS011;46804;51.786;19.520;2024-03-08T04:35:31;13.90;;;6.00;;
60935;SDS011;46804;51.786;19.520;2024-03-08T04:39:32;11.80;;;6.45;;
60935;SDS011;46804;51.786;19.520;2024-03-08T04:43:33;16.73;;;7.22;;
60935;SDS011;46804;51.786;19.520;2024-03-08T04:47:34;12.80;;;6.07;;
60935;SDS011;46804;51.786;19.520;2024-03-08T04:51:37;18.80;;;7.63;;
60935;SDS011;46804;51.786;19.520;2024-03-08T04:55:38;14.32;;;6.47;;
60935;SDS011;46804;51.786;19.520;2024-03-08T04:59:38;9.70;;;5.40;;
60935;SDS011;46804;51.786;19.520;2024-03-08T05:03:39;10.02;;;5.30;;
60935;SDS011;46804;51.786;19.520;2024-03-08T05:07:40;13.13;;;5.85;;
60935;SDS011;46804;51.786;19.520;2024-03-08T05:11:41;10.85;;;5.63;;
60935;SDS011;46804;51.786;19.520;2024-03-08T05:15:48;17.55;;;6.90;;
60935;SDS011;46804;51.786;19.520;2024-03-08T05:19:50;15.27;;;8.65;;
60935;SDS011;46804;51.786;19.520;2024-03-08T05:23:51;23.25;;;10.73;;
60935;SDS011;46804;51.786;19.520;2024-03-08T05:27:52;13.27;;;7.25;;
60935;SDS011;46804;51.786;19.520;2024-03-08T05:31:53;15.00;;;6.25;;
60935;SDS011;46804;51.786;19.520;2024-03-08T05:35:53;11.90;;;5.57;;
60935;SDS011;46804;51.786;19.520;2024-03-08T05:39:54;11.27;;;6.45;;
60935;SDS011;46804;51.786;19.520;2024-03-08T05:43:55;19.60;;;8.88;;
60935;SDS011;46804;51.786;19.520;2024-03-08T05:47:56;11.25;;;6.32;;
60935;SDS011;46804;51.786;19.520;2024-03-08T05:51:57;24.65;;;9.88;;
60935;SDS011;46804;51.786;19.520;2024-03-08T05:55:58;33.90;;;14.90;;
60935;SDS011;46804;51.786;19.520;2024-03-08T05:59:59;30.42;;;15.50;;
60935;SDS011;46804;51.786;19.520;2024-03-08T06:04:00;120.50;;;38.83;;
60935;SDS011;46804;51.786;19.520;2024-03-08T06:08:00;82.13;;;30.40;;
60935;SDS011;46804;51.786;19.520;2024-03-08T06:12:01;55.45;;;30.58;;
60935;SDS011;46804;51.786;19.520;2024-03-08T06:16:05;22.15;;;9.02;;
60935;SDS011;46804;51.786;19.520;2024-03-08T06:20:08;18.85;;;9.43;;
60935;SDS011;46804;51.786;19.520;2024-03-08T06:24:13;22.48;;;10.48;;
60935;SDS011;46804;51.786;19.520;2024-03-08T06:28:15;15.27;;;8.23;;
60935;SDS011;46804;51.786;19.520;2024-03-08T06:32:17;19.02;;;9.73;;
60935;SDS011;46804;51.786;19.520;2024-03-08T06:36:19;18.08;;;9.77;;
60935;SDS011;46804;51.786;19.520;2024-03-08T06:40:22;19.67;;;9.40;;
60935;SDS011;46804;51.786;19.520;2024-03-08T06:44:23;18.13;;;9.15;;
60935;SDS011;46804;51.786;19.520;2024-03-08T06:48:23;19.50;;;9.52;;
60935;SDS011;46804;51.786;19.520;2024-03-08T06:52:24;16.98;;;8.88;;
60935;SDS011;46804;51.786;19.520;2024-03-08T06:56:25;25.20;;;10.10;;
60935;SDS011;46804;51.786;19.520;2024-03-08T07:00:26;23.02;;;11.25;;
60935;SDS011;46804;51.786;19.520;2024-03-08T07:04:29;20.25;;;10.38;;
60935;SDS011;46804;51.786;19.520;2024-03-08T07:08:30;22.65;;;10.38;;
60935;SDS011;46804;51.786;19.520;2024-03-08T07:12:31;19.55;;;10.65;;
60935;SDS011;46804;51.786;19.520;2024-03-08T07:16:31;22.73;;;10.98;;
60935;SDS011;46804;51.786;19.520;2024-03-08T07:20:32;26.88;;;11.07;;
60935;SDS011;46804;51.786;19.520;2024-03-08T07:24:33;25.80;;;10.90;;
60935;SDS011;46804;51.786;19.520;2024-03-08T07:29:11;20.73;;;11.00;;
60935;SDS011;46804;51.786;19.520;2024-03-08T07:33:11;26.23;;;10.70;;
60935;SDS011;46804;51.786;19.520;2024-03-08T07:37:13;26.38;;;11.27;;
60935;SDS011;46804;51.786;19.520;2024-03-08T07:41:17;21.77;;;10.75;;
60935;SDS011;46804;51.786;19.520;2024-03-08T07:45:17;19.52;;;9.85;;
60935;SDS011;46804;51.786;19.520;2024-03-08T07:49:18;17.48;;;9.80;;
60935;SDS011;46804;51.786;19.520;2024-03-08T07:53:19;23.50;;;11.60;;
60935;SDS011;46804;51.786;19.520;2024-03-08T07:57:20;22.48;;;11.20;;
60935;SDS011;46804;51.786;19.520;2024-03-08T08:01:21;18.83;;;10.13;;
60935;SDS011;46804;51.786;19.520;2024-03-08T08:05:22;24.40;;;10.80;;
60935;SDS011;46804;51.786;19.520;2024-03-08T08:09:23;19.40;;;10.25;;
60935;SDS011;46804;51.786;19.520;2024-03-08T08:13:29;18.42;;;9.20;;
60935;SDS011;46804;51.786;19.520;2024-03-08T08:17:32;17.98;;;10.10;;
60935;SDS011;46804;51.786;19.520;2024-03-08T08:21:35;16.42;;;8.30;;
60935;SDS011;46804;51.786;19.520;2024-03-08T08:25:37;17.23;;;9.02;;
60935;SDS011;46804;51.786;19.520;2024-03-08T08:29:38;21.67;;;9.40;;
60935;SDS011;46804;51.786;19.520;2024-03-08T08:33:38;25.40;;;9.75;;
60935;SDS011;46804;51.786;19.520;2024-03-08T08:37:40;16.40;;;9.15;;
60935;SDS011;46804;51.786;19.520;2024-03-08T08:41:41;15.48;;;8.40;;
60935;SDS011;46804;51.786;19.520;2024-03-08T08:45:42;13.65;;;8.20;;
60935;SDS011;46804;51.786;19.520;2024-03-08T08:49:43;13.57;;;7.85;;
60935;SDS011;46804;51.786;19.520;2024-03-08T08:53:45;13.63;;;7.93;;
60935;SDS011;46804;51.786;19.520;2024-03-08T08:57:47;14.88;;;8.75;;
60935;SDS011;46804;51.786;19.520;2024-03-08T09:01:48;18.52;;;9.38;;
60935;SDS011;46804;51.786;19.520;2024-03-08T09:05:50;15.68;;;7.57;;
60935;SDS011;46804;51.786;19.520;2024-03-08T09:09:51;15.20;;;8.48;;
60935;SDS011;46804;51.786;19.520;2024-03-08T09:13:52;17.10;;;8.38;;
60935;SDS011;46804;51.786;19.520;2024-03-08T09:17:53;13.10;;;6.60;;
60935;SDS011;46804;51.786;19.520;2024-03-08T09:21:53;13.50;;;6.82;;
60935;SDS011;46804;51.786;19.520;2024-03-08T09:25:54;14.93;;;8.20;;
60935;SDS011;46804;51.786;19.520;2024-03-08T09:29:55;15.07;;;7.38;;
60935;SDS011;46804;51.786;19.520;2024-03-08T09:33:56;12.00;;;6.57;;
60935;SDS011;46804;51.786;19.520;2024-03-08T09:37:57;13.25;;;6.97;;
60935;SDS011;46804;51.786;19.520;2024-03-08T09:41:58;9.35;;;5.50;;
60935;SDS011;46804;51.786;19.520;2024-03-08T09:45:59;14.13;;;6.72;;
60935;SDS011;46804;51.786;19.520;2024-03-08T09:50:00;11.68;;;6.68;;
60935;SDS011;46804;51.786;19.520;2024-03-08T09:54:02;11.05;;;5.70;;
60935;SDS011;46804;51.786;19.520;2024-03-08T09:58:05;11.55;;;6.95;;
60935;SDS011;46804;51.786;19.520;2024-03-08T10:02:21;16.08;;;8.77;;
60935;SDS011;46804;51.786;19.520;2024-03-08T10:06:25;12.48;;;6.60;;
60935;SDS011;46804;51.786;19.520;2024-03-08T10:10:26;15.27;;;8.77;;
60935;SDS011;46804;51.786;19.520;2024-03-08T10:14:27;19.63;;;11.65;;
60935;SDS011;46804;51.786;19.520;2024-03-08T10:18:28;20.17;;;11.10;;
60935;SDS011;46804;51.786;19.520;2024-03-08T10:22:29;16.17;;;9.20;;
60935;SDS011;46804;51.786;19.520;2024-03-08T10:26:30;19.10;;;10.40;;
60935;SDS011;46804;51.786;19.520;2024-03-08T10:30:31;18.23;;;9.35;;
60935;SDS011;46804;51.786;19.520;2024-03-08T10:34:31;14.13;;;9.07;;
60935;SDS011;46804;51.786;19.520;2024-03-08T10:38:32;16.77;;;9.88;;
60935;SDS011;46804;51.786;19.520;2024-03-08T10:47:02;16.08;;;9.20;;
60935;SDS011;46804;51.786;19.520;2024-03-08T10:51:11;15.98;;;8.23;;
60935;SDS011;46804;51.786;19.520;2024-03-08T10:55:12;13.98;;;7.57;;
60935;SDS011;46804;51.786;19.520;2024-03-08T10:59:15;15.30;;;8.75;;
60935;SDS011;46804;51.786;19.520;2024-03-08T11:07:44;13.75;;;8.10;;
60935;SDS011;46804;51.786;19.520;2024-03-08T11:11:45;12.35;;;7.57;;
60935;SDS011;46804;51.786;19.520;2024-03-08T11:15:46;14.38;;;8.75;;
60935;SDS011;46804;51.786;19.520;2024-03-08T11:19:48;16.85;;;8.38;;
60935;SDS011;46804;51.786;19.520;2024-03-08T11:23:59;16.55;;;7.47;;
60935;SDS011;46804;51.786;19.520;2024-03-08T11:28:10;13.82;;;8.15;;
60935;SDS011;46804;51.786;19.520;2024-03-08T11:32:17;15.00;;;8.82;;
60935;SDS011;46804;51.786;19.520;2024-03-08T11:36:20;15.10;;;8.32;;
60935;SDS011;46804;51.786;19.520;2024-03-08T11:44:26;13.75;;;8.15;;
60935;SDS011;46804;51.786;19.520;2024-03-08T11:48:27;13.48;;;7.72;;
60935;SDS011;46804;51.786;19.520;2024-03-08T11:52:28;13.25;;;8.48;;
60935;SDS011;46804;51.786;19.520;2024-03-08T11:56:30;13.45;;;7.18;;
60935;SDS011;46804;51.786;19.520;2024-03-08T12:00:32;13.05;;;7.57;;
60935;SDS011;46804;51.786;19.520;2024-03-08T12:04:35;14.55;;;7.40;;
60935;SDS011;46804;51.786;19.520;2024-03-08T12:08:36;10.35;;;6.78;;
60935;SDS011;46804;51.786;19.520;2024-03-08T12:12:38;12.38;;;7.10;;
60935;SDS011;46804;51.786;19.520;2024-03-08T12:16:39;12.75;;;7.25;;
60935;SDS011;46804;51.786;19.520;2024-03-08T12:20:40;10.57;;;6.60;;
60935;SDS011;46804;51.786;19.520;2024-03-08T12:24:44;13.13;;;7.15;;
60935;SDS011;46804;51.786;19.520;2024-03-08T12:28:45;12.90;;;7.40;;
60935;SDS011;46804;51.786;19.520;2024-03-08T12:32:52;13.60;;;8.15;;
60935;SDS011;46804;51.786;19.520;2024-03-08T12:36:57;13.20;;;7.60;;
60935;SDS011;46804;51.786;19.520;2024-03-08T12:40:58;13.45;;;8.27;;
60935;SDS011;46804;51.786;19.520;2024-03-08T12:45:00;12.30;;;7.93;;
60935;SDS011;46804;51.786;19.520;2024-03-08T12:49:03;15.67;;;9.30;;
60935;SDS011;46804;51.786;19.520;2024-03-08T12:53:05;14.48;;;8.48;;
60935;SDS011;46804;51.786;19.520;2024-03-08T12:57:05;15.77;;;8.10;;
60935;SDS011;46804;51.786;19.520;2024-03-08T13:01:06;13.15;;;7.72;;
60935;SDS011;46804;51.786;19.520;2024-03-08T13:05:08;12.23;;;7.65;;
60935;SDS011;46804;51.786;19.520;2024-03-08T13:09:11;14.05;;;7.40;;
60935;SDS011;46804;51.786;19.520;2024-03-08T13:13:12;16.73;;;8.13;;
60935;SDS011;46804;51.786;19.520;2024-03-08T13:17:14;12.88;;;8.15;;
60935;SDS011;46804;51.786;19.520;2024-03-08T13:21:15;12.88;;;8.60;;
60935;SDS011;46804;51.786;19.520;2024-03-08T13:25:20;12.20;;;7.57;;
60935;SDS011;46804;51.786;19.520;2024-03-08T13:29:20;13.70;;;8.38;;
60935;SDS011;46804;51.786;19.520;2024-03-08T13:33:21;12.20;;;7.57;;
60935;SDS011;46804;51.786;19.520;2024-03-08T13:37:22;13.85;;;7.25;;
60935;SDS011;46804;51.786;19.520;2024-03-08T13:41:23;14.32;;;7.07;;
60935;SDS011;46804;51.786;19.520;2024-03-08T13:45:25;13.82;;;7.47;;
60935;SDS011;46804;51.786;19.520;2024-03-08T13:49:25;12.98;;;6.93;;
60935;SDS011;46804;51.786;19.520;2024-03-08T13:53:26;14.43;;;8.00;;
60935;SDS011;46804;51.786;19.520;2024-03-08T13:57:27;11.88;;;7.50;;
60935;SDS011;46804;51.786;19.520;2024-03-08T14:01:28;13.80;;;7.68;;
60935;SDS011;46804;51.786;19.520;2024-03-08T14:05:30;11.70;;;7.72;;
60935;SDS011;46804;51.786;19.520;2024-03-08T14:09:35;13.50;;;7.40;;
60935;SDS011;46804;51.786;19.520;2024-03-08T14:13:41;17.08;;;8.48;;
60935;SDS011;46804;51.786;19.520;2024-03-08T14:17:51;13.30;;;8.38;;
60935;SDS011;46804;51.786;19.520;2024-03-08T14:21:53;18.05;;;8.82;;
60935;SDS011;46804;51.786;19.520;2024-03-08T14:25:53;16.88;;;9.10;;
60935;SDS011;46804;51.786;19.520;2024-03-08T14:29:54;13.05;;;7.70;;
60935;SDS011;46804;51.786;19.520;2024-03-08T14:33:55;13.50;;;8.18;;
60935;SDS011;46804;51.786;19.520;2024-03-08T14:37:57;21.70;;;8.77;;
60935;SDS011;46804;51.786;19.520;2024-03-08T14:41:58;14.23;;;9.32;;
60935;SDS011;46804;51.786;19.520;2024-03-08T14:46:00;16.80;;;9.90;;
60935;SDS011;46804;51.786;19.520;2024-03-08T14:50:01;14.15;;;8.63;;
60935;SDS011;46804;51.786;19.520;2024-03-08T14:54:02;18.48;;;9.80;;
60935;SDS011;46804;51.786;19.520;2024-03-08T14:58:06;19.50;;;10.73;;
60935;SDS011;46804;51.786;19.520;2024-03-08T15:02:07;20.63;;;10.15;;
60935;SDS011;46804;51.786;19.520;2024-03-08T15:06:08;19.70;;;9.80;;
60935;SDS011;46804;51.786;19.520;2024-03-08T15:10:10;21.05;;;10.57;;
60935;SDS011;46804;51.786;19.520;2024-03-08T15:14:17;18.50;;;9.82;;
60935;SDS011;46804;51.786;19.520;2024-03-08T15:18:20;18.33;;;10.00;;
60935;SDS011;46804;51.786;19.520;2024-03-08T15:22:31;21.45;;;9.38;;
60935;SDS011;46804;51.786;19.520;2024-03-08T15:26:32;18.90;;;10.02;;
60935;SDS011;46804;51.786;19.520;2024-03-08T15:30:32;21.02;;;10.57;;
60935;SDS011;46804;51.786;19.520;2024-03-08T15:34:34;16.00;;;8.63;;
60935;SDS011;46804;51.786;19.520;2024-03-08T15:38:38;21.23;;;10.15;;
60935;SDS011;46804;51.786;19.520;2024-03-08T15:42:39;19.40;;;9.02;;
60935;SDS011;46804;51.786;19.520;2024-03-08T15:46:40;18.08;;;8.85;;
60935;SDS011;46804;51.786;19.520;2024-03-08T15:50:41;16.40;;;8.77;;
60935;SDS011;46804;51.786;19.520;2024-03-08T15:54:42;17.23;;;8.68;;
60935;SDS011;46804;51.786;19.520;2024-03-08T15:58:44;15.85;;;8.40;;
60935;SDS011;46804;51.786;19.520;2024-03-08T16:02:44;17.30;;;8.85;;
60935;SDS011;46804;51.786;19.520;2024-03-08T16:06:45;31.52;;;11.43;;
60935;SDS011;46804;51.786;19.520;2024-03-08T16:10:47;22.23;;;11.60;;
60935;SDS011;46804;51.786;19.520;2024-03-08T16:14:49;34.00;;;14.38;;
60935;SDS011;46804;51.786;19.520;2024-03-08T16:18:51;22.15;;;12.68;;
60935;SDS011;46804;51.786;19.520;2024-03-08T16:22:52;26.33;;;12.40;;
60935;SDS011;46804;51.786;19.520;2024-03-08T16:26:53;24.17;;;11.32;;
60935;SDS011;46804;51.786;19.520;2024-03-08T16:30:54;36.20;;;16.70;;
60935;SDS011;46804;51.786;19.520;2024-03-08T16:34:55;35.70;;;17.05;;
60935;SDS011;46804;51.786;19.520;2024-03-08T16:38:55;35.50;;;18.17;;
60935;SDS011;46804;51.786;19.520;2024-03-08T16:42:58;48.78;;;23.95;;
60935;SDS011;46804;51.786;19.520;2024-03-08T16:46:59;27.55;;;14.85;;
60935;SDS011;46804;51.786;19.520;2024-03-08T16:51:00;46.08;;;20.55;;
60935;SDS011;46804;51.786;19.520;2024-03-08T16:55:04;58.47;;;23.42;;
60935;SDS011;46804;51.786;19.520;2024-03-08T16:59:06;60.95;;;27.88;;
60935;SDS011;46804;51.786;19.520;2024-03-08T17:03:09;54.22;;;25.73;;
60935;SDS011;46804;51.786;19.520;2024-03-08T17:07:12;59.20;;;27.58;;
60935;SDS011;46804;51.786;19.520;2024-03-08T17:11:13;56.85;;;21.10;;
60935;SDS011;46804;51.786;19.520;2024-03-08T17:15:15;55.47;;;21.58;;
60935;SDS011;46804;51.786;19.520;2024-03-08T17:19:17;76.90;;;26.70;;
60935;SDS011;46804;51.786;19.520;2024-03-08T17:23:18;81.28;;;28.50;;
60935;SDS011;46804;51.786;19.520;2024-03-08T17:27:21;63.03;;;24.70;;
60935;SDS011;46804;51.786;19.520;2024-03-08T17:31:25;63.55;;;23.50;;
60935;SDS011;46804;51.786;19.520;2024-03-08T17:35:26;111.57;;;35.10;;
60935;SDS011;46804;51.786;19.520;2024-03-08T17:39:27;70.22;;;27.45;;
60935;SDS011;46804;51.786;19.520;2024-03-08T17:43:30;27.95;;;13.98;;
60935;SDS011;46804;51.786;19.520;2024-03-08T17:47:31;31.88;;;14.18;;
60935;SDS011;46804;51.786;19.520;2024-03-08T17:51:32;29.20;;;13.98;;
60935;SDS011;46804;51.786;19.520;2024-03-08T17:55:33;32.25;;;13.48;;
60935;SDS011;46804;51.786;19.520;2024-03-08T17:59:34;34.85;;;17.10;;
60935;SDS011;46804;51.786;19.520;2024-03-08T18:03:35;29.80;;;14.15;;
60935;SDS011;46804;51.786;19.520;2024-03-08T18:07:37;27.98;;;14.23;;
60935;SDS011;46804;51.786;19.520;2024-03-08T18:11:38;97.50;;;29.55;;
60935;SDS011;46804;51.786;19.520;2024-03-08T18:15:39;24.00;;;13.32;;
60935;SDS011;46804;51.786;19.520;2024-03-08T18:19:40;21.42;;;10.00;;
60935;SDS011;46804;51.786;19.520;2024-03-08T18:23:41;24.35;;;11.50;;
60935;SDS011;46804;51.786;19.520;2024-03-08T18:27:44;29.80;;;11.48;;
60935;SDS011;46804;51.786;19.520;2024-03-08T18:31:44;31.48;;;13.20;;
60935;SDS011;46804;51.786;19.520;2024-03-08T18:35:46;32.50;;;13.60;;
60935;SDS011;46804;51.786;19.520;2024-03-08T18:39:47;23.17;;;11.77;;
60935;SDS011;46804;51.786;19.520;2024-03-08T18:43:48;22.58;;;11.15;;
60935;SDS011;46804;51.786;19.520;2024-03-08T18:47:51;27.85;;;11.73;;
60935;SDS011;46804;51.786;19.520;2024-03-08T18:51:52;23.40;;;11.10;;
60935;SDS011;46804;51.786;19.520;2024-03-08T18:55:54;22.15;;;10.23;;
60935;SDS011;46804;51.786;19.520;2024-03-08T18:59:55;23.98;;;10.63;;
60935;SDS011;46804;51.786;19.520;2024-03-08T19:03:55;20.23;;;9.77;;
60935;SDS011;46804;51.786;19.520;2024-03-08T19:07:56;24.50;;;10.50;;
60935;SDS011;46804;51.786;19.520;2024-03-08T19:11:57;25.58;;;11.25;;
60935;SDS011;46804;51.786;19.520;2024-03-08T19:16:00;28.00;;;12.57;;
60935;SDS011;46804;51.786;19.520;2024-03-08T19:20:01;32.05;;;12.25;;
60935;SDS011;46804;51.786;19.520;2024-03-08T19:24:06;32.35;;;13.63;;
60935;SDS011;46804;51.786;19.520;2024-03-08T19:28:09;25.95;;;11.20;;
60935;SDS011;46804;51.786;19.520;2024-03-08T19:32:13;21.42;;;10.35;;
60935;SDS011;46804;51.786;19.520;2024-03-08T19:36:14;25.05;;;11.35;;
60935;SDS011;46804;51.786;19.520;2024-03-08T19:40:18;22.60;;;9.68;;
60935;SDS011;46804;51.786;19.520;2024-03-08T19:44:22;23.05;;;10.07;;
60935;SDS011;46804;51.786;19.520;2024-03-08T19:48:24;27.73;;;11.00;;
60935;SDS011;46804;51.786;19.520;2024-03-08T19:52:26;20.55;;;9.70;;
60935;SDS011;46804;51.786;19.520;2024-03-08T19:56:27;25.10;;;10.32;;
60935;SDS011;46804;51.786;19.520;2024-03-08T20:00:35;26.23;;;12.85;;
60935;SDS011;46804;51.786;19.520;2024-03-08T20:04:37;25.73;;;12.90;;
60935;SDS011;46804;51.786;19.520;2024-03-08T20:08:37;26.13;;;12.50;;
60935;SDS011;46804;51.786;19.520;2024-03-08T20:12:42;26.52;;;11.60;;
60935;SDS011;46804;51.786;19.520;2024-03-08T20:16:46;29.40;;;12.20;;
60935;SDS011;46804;51.786;19.520;2024-03-08T20:20:48;72.13;;;24.60;;
60935;SDS011;46804;51.786;19.520;2024-03-08T20:24:48;40.45;;;14.73;;
60935;SDS011;46804;51.786;19.520;2024-03-08T20:28:49;43.47;;;13.90;;
60935;SDS011;46804;51.786;19.520;2024-03-08T20:32:52;34.53;;;14.77;;
60935;SDS011;46804;51.786;19.520;2024-03-08T20:36:58;57.65;;;18.80;;
60935;SDS011;46804;51.786;19.520;2024-03-08T20:40:59;49.40;;;17.25;;
60935;SDS011;46804;51.786;19.520;2024-03-08T20:44:59;42.83;;;15.32;;
60935;SDS011;46804;51.786;19.520;2024-03-08T20:49:00;32.42;;;13.93;;
60935;SDS011;46804;51.786;19.520;2024-03-08T20:53:01;37.33;;;15.68;;
60935;SDS011;46804;51.786;19.520;2024-03-08T20:57:07;93.95;;;32.08;;
60935;SDS011;46804;51.786;19.520;2024-03-08T21:01:09;38.10;;;16.83;;
60935;SDS011;46804;51.786;19.520;2024-03-08T21:05:09;41.42;;;16.85;;
60935;SDS011;46804;51.786;19.520;2024-03-08T21:09:11;39.55;;;17.00;;
60935;SDS011;46804;51.786;19.520;2024-03-08T21:13:12;50.08;;;18.58;;
60935;SDS011;46804;51.786;19.520;2024-03-08T21:17:12;80.22;;;24.50;;
60935;SDS011;46804;51.786;19.520;2024-03-08T21:21:13;42.53;;;19.95;;
60935;SDS011;46804;51.786;19.520;2024-03-08T21:25:14;41.42;;;17.55;;
60935;SDS011;46804;51.786;19.520;2024-03-08T21:29:15;50.25;;;17.75;;
60935;SDS011;46804;51.786;19.520;2024-03-08T21:33:16;48.45;;;18.75;;
60935;SDS011;46804;51.786;19.520;2024-03-08T21:37:17;49.22;;;20.17;;
60935;SDS011;46804;51.786;19.520;2024-03-08T21:41:19;45.25;;;18.38;;
60935;SDS011;46804;51.786;19.520;2024-03-08T21:45:20;42.38;;;16.95;;
60935;SDS011;46804;51.786;19.520;2024-03-08T21:49:22;41.20;;;16.23;;
60935;SDS011;46804;51.786;19.520;2024-03-08T21:53:23;31.00;;;14.55;;
60935;SDS011;46804;51.786;19.520;2024-03-08T21:57:24;34.97;;;16.30;;
60935;SDS011;46804;51.786;19.520;2024-03-08T22:01:24;40.03;;;17.05;;
60935;SDS011;46804;51.786;19.520;2024-03-08T22:05:25;36.60;;;16.15;;
60935;SDS011;46804;51.786;19.520;2024-03-08T22:09:26;52.10;;;20.48;;
60935;SDS011;46804;51.786;19.520;2024-03-08T22:13:26;37.78;;;15.50;;
60935;SDS011;46804;51.786;19.520;2024-03-08T22:17:27;41.55;;;15.82;;
60935;SDS011;46804;51.786;19.520;2024-03-08T22:21:27;33.83;;;14.63;;
60935;SDS011;46804;51.786;19.520;2024-03-08T22:25:28;31.38;;;15.15;;
60935;SDS011;46804;51.786;19.520;2024-03-08T22:29:30;32.17;;;14.55;;
60935;SDS011;46804;51.786;19.520;2024-03-08T22:33:31;32.60;;;14.10;;
60935;SDS011;46804;51.786;19.520;2024-03-08T22:37:31;42.13;;;16.67;;
60935;SDS011;46804;51.786;19.520;2024-03-08T22:41:32;38.38;;;16.30;;
60935;SDS011;46804;51.786;19.520;2024-03-08T22:45:37;42.17;;;17.17;;
60935;SDS011;46804;51.786;19.520;2024-03-08T22:49:38;35.60;;;15.95;;
60935;SDS011;46804;51.786;19.520;2024-03-08T22:53:39;42.67;;;18.17;;
60935;SDS011;46804;51.786;19.520;2024-03-08T22:57:41;34.75;;;15.50;;
60935;SDS011;46804;51.786;19.520;2024-03-08T23:01:43;42.88;;;16.42;;
60935;SDS011;46804;51.786;19.520;2024-03-08T23:05:46;53.75;;;18.55;;
60935;SDS011;46804;51.786;19.520;2024-03-08T23:09:46;44.70;;;18.85;;
60935;SDS011;46804;51.786;19.520;2024-03-08T23:13:47;35.90;;;15.75;;
60935;SDS011;46804;51.786;19.520;2024-03-08T23:17:48;34.13;;;16.10;;
60935;SDS011;46804;51.786;19.520;2024-03-08T23:21:52;36.70;;;16.95;;
60935;SDS011;46804;51.786;19.520;2024-03-08T23:25:54;35.63;;;16.48;;
60935;SDS011;46804;51.786;19.520;2024-03-08T23:29:55;34.60;;;16.20;;
60935;SDS011;46804;51.786;19.520;2024-03-08T23:33:56;31.55;;;15.07;;
60935;SDS011;46804;51.786;19.520;2024-03-08T23:37:57;39.30;;;15.18;;